Time;durP1;ratioP1;P1;durP2;ratioP2;P2;SDS_P1;SDS_P2;PMS_P1;PMS_P2;Temp;Humidity;BMP_temperature;BMP_pressure;BME280_temperature;BME280_humidity;BME280_pressure;Samples;Min_cycle;Max_cycle;Signal;HPM_P1;HPM_P2
2021/12/03 00:03:40;;;;;;;12.70;7.13;;;;;;;-2.97;100.00;95574.09;10572875;28;20209;-66
2021/12/03 00:08:41;;;;;;;12.10;7.33;;;;;;;-2.93;100.00;95583.22;10572567;28;20290;-64
2021/12/03 00:13:41;;;;;;;12.90;7.20;;;;;;;-3.09;100.00;95600.53;10572247;28;20214;-65
2021/12/03 00:18:42;;;;;;;9.77;6.80;;;;;;;-3.09;100.00;95623.59;10572317;28;20171;-65
2021/12/03 00:23:42;;;;;;;11.20;7.03;;;;;;;-3.24;100.00;95625.41;10572027;28;20255;-66
2021/12/03 00:28:42;;;;;;;11.83;6.63;;;;;;;-2.91;100.00;95636.91;10571015;28;20170;-64
2021/12/03 00:33:43;;;;;;;17.17;7.20;;;;;;;-2.85;100.00;95648.53;10571825;28;20220;-63
2021/12/03 00:38:46;;;;;;;10.67;6.63;;;;;;;-2.80;100.00;95649.88;10571162;28;20166;-65
2021/12/03 00:43:52;;;;;;;16.83;7.90;;;;;;;-2.85;100.00;95653.66;10571234;28;20198;-63
2021/12/03 00:48:53;;;;;;;19.27;8.63;;;;;;;-3.02;100.00;95668.38;10570889;28;20175;-66
2021/12/03 00:53:54;;;;;;;19.03;9.00;;;;;;;-2.70;100.00;95681.66;10570865;28;20396;-66
2021/12/03 00:58:54;;;;;;;15.20;8.00;;;;;;;-2.51;100.00;95688.97;10570486;28;20260;-67
2021/12/03 01:03:54;;;;;;;13.97;8.90;;;;;;;-2.55;100.00;95694.41;10570690;28;20338;-66
2021/12/03 01:08:55;;;;;;;13.07;7.07;;;;;;;-2.37;100.00;95695.72;10569492;28;20171;-65
2021/12/03 01:14:00;;;;;;;15.33;7.97;;;;;;;-2.32;100.00;95710.81;10570142;28;20221;-65
2021/12/03 01:19:00;;;;;;;16.00;7.03;;;;;;;-2.45;100.00;95725.38;10569637;28;20236;-66
2021/12/03 01:24:01;;;;;;;14.53;8.53;;;;;;;-2.57;100.00;95740.66;10569058;28;20195;-65
2021/12/03 01:29:02;;;;;;;18.17;8.73;;;;;;;-2.38;100.00;95742.00;10569358;28;20230;-65
2021/12/03 01:34:03;;;;;;;11.77;7.20;;;;;;;-2.48;100.00;95744.34;10569198;28;20163;-64
2021/12/03 01:39:04;;;;;;;12.30;6.67;;;;;;;-2.52;100.00;95748.03;10568252;28;20234;-66
2021/12/03 01:44:04;;;;;;;12.07;7.17;;;;;;;-2.67;100.00;95749.84;10568815;28;20255;-65
2021/12/03 01:49:05;;;;;;;12.17;7.80;;;;;;;-2.53;100.00;95757.47;10568118;28;20288;-65
2021/12/03 01:54:06;;;;;;;23.07;8.73;;;;;;;-2.58;100.00;95764.63;10568218;28;20178;-66
2021/12/03 01:59:07;;;;;;;11.03;6.83;;;;;;;-2.58;100.00;95759.50;10567664;28;20228;-66
2021/12/03 02:04:07;;;;;;;11.70;6.57;;;;;;;-2.51;100.00;95745.38;10566895;28;20205;-66
2021/12/03 02:09:08;;;;;;;12.50;6.43;;;;;;;-2.62;100.00;95741.84;10567635;28;20351;-65
2021/12/03 02:14:08;;;;;;;11.87;6.43;;;;;;;-2.65;100.00;95740.31;10567720;28;20286;-67
2021/12/03 02:19:09;;;;;;;10.60;5.90;;;;;;;-2.77;100.00;95739.38;10567376;28;20393;-66
2021/12/03 02:24:09;;;;;;;13.23;6.80;;;;;;;-2.78;100.00;95736.91;10566889;28;20209;-63
2021/12/03 02:29:10;;;;;;;12.50;5.60;;;;;;;-2.85;100.00;95726.22;10567134;28;20174;-65
2021/12/03 02:34:10;;;;;;;12.03;6.27;;;;;;;-2.92;100.00;95730.09;10566991;28;20188;-62
2021/12/03 02:39:10;;;;;;;9.10;5.87;;;;;;;-2.99;100.00;95721.16;10566495;28;20197;-67
2021/12/03 02:44:11;;;;;;;12.40;7.23;;;;;;;-3.09;100.00;95729.44;10567163;28;20323;-64
2021/12/03 02:49:14;;;;;;;12.97;6.80;;;;;;;-3.17;100.00;95718.84;10565912;28;20171;-66
2021/12/03 02:54:14;;;;;;;12.87;7.90;;;;;;;-3.25;100.00;95734.72;10566719;28;20174;-65
2021/12/03 02:59:15;;;;;;;14.23;7.47;;;;;;;-3.29;100.00;95752.94;10566353;28;20408;-64
2021/12/03 03:04:15;;;;;;;16.13;7.97;;;;;;;-3.36;100.00;95744.78;10566067;28;20428;-64
2021/12/03 03:09:15;;;;;;;14.80;7.03;;;;;;;-3.42;100.00;95730.63;10565858;28;20181;-66
2021/12/03 03:14:16;;;;;;;15.30;8.50;;;;;;;-3.56;100.00;95733.22;10566050;28;20215;-65
2021/12/03 03:19:20;;;;;;;16.97;8.43;;;;;;;-3.63;100.00;95735.34;10565635;28;20163;-65
2021/12/03 03:24:20;;;;;;;18.93;9.70;;;;;;;-3.67;100.00;95745.84;10565659;28;20198;-64
2021/12/03 03:29:21;;;;;;;22.10;10.80;;;;;;;-3.81;100.00;95741.56;10565812;28;20179;-63
2021/12/03 03:34:21;;;;;;;21.77;9.83;;;;;;;-3.80;100.00;95741.47;10565751;28;20285;-65
2021/12/03 03:39:22;;;;;;;13.87;8.13;;;;;;;-3.86;100.00;95739.28;10565464;28;20189;-64
2021/12/03 03:44:22;;;;;;;19.13;9.57;;;;;;;-3.86;100.00;95749.53;10565838;28;20212;-64
2021/12/03 03:49:23;;;;;;;11.00;7.57;;;;;;;-3.90;100.00;95753.19;10564644;28;20159;-64
2021/12/03 03:54:24;;;;;;;18.50;8.63;;;;;;;-3.85;100.00;95763.13;10565987;28;20379;-65
2021/12/03 03:59:24;;;;;;;19.17;8.00;;;;;;;-3.83;100.00;95764.69;10564876;28;20296;-64
2021/12/03 04:04:25;;;;;;;16.63;8.47;;;;;;;-3.79;100.00;95761.03;10548323;28;20262;-62
2021/12/03 04:09:25;;;;;;;21.10;8.10;;;;;;;-3.74;100.00;95773.53;10524390;28;20182;-64
2021/12/03 04:14:26;;;;;;;19.83;8.30;;;;;;;-3.78;100.00;95777.22;10524703;28;20225;-64
2021/12/03 04:19:26;;;;;;;9.97;5.23;;;;;;;-3.82;100.00;95780.88;10523990;28;20179;-64
2021/12/03 04:24:26;;;;;;;12.83;6.00;;;;;;;-3.81;100.00;95791.00;10523895;28;20262;-64
2021/12/03 04:29:27;;;;;;;12.30;7.90;;;;;;;-3.83;100.00;95795.41;10523651;28;20388;-66
2021/12/03 04:34:28;;;;;;;11.83;7.27;;;;;;;-3.83;100.00;95797.97;10523737;28;20213;-64
2021/12/03 04:39:28;;;;;;;14.13;7.70;;;;;;;-3.78;100.00;95802.81;10523502;28;20608;-64
2021/12/03 04:44:29;;;;;;;12.87;7.30;;;;;;;-3.85;100.00;95816.88;10523152;28;20255;-65
2021/12/03 04:49:30;;;;;;;11.00;5.97;;;;;;;-3.83;100.00;95818.44;10522710;28;20171;-62
2021/12/03 04:54:30;;;;;;;12.80;6.27;;;;;;;-3.83;100.00;95826.09;10523584;28;20189;-62
2021/12/03 04:59:31;;;;;;;9.83;5.20;;;;;;;-3.82;100.00;95826.91;10522291;28;20244;-61
2021/12/03 05:04:37;;;;;;;12.13;6.50;;;;;;;-3.90;100.00;95817.13;10527627;28;20198;-62
2021/12/03 05:09:38;;;;;;;10.93;6.70;;;;;;;-4.00;100.00;95842.41;10528248;28;20167;-61
2021/12/03 05:14:38;;;;;;;12.17;5.83;;;;;;;-4.00;100.00;95844.97;10525927;28;20437;-64
2021/12/03 05:19:38;;;;;;;10.33;6.47;;;;;;;-3.99;100.00;95856.84;10526820;28;20170;-62
2021/12/03 05:24:40;;;;;;;23.77;11.40;;;;;;;-3.97;100.00;95860.16;10526674;28;20452;-60
2021/12/03 05:29:43;;;;;;;33.70;13.20;;;;;;;-4.02;100.00;95862.16;10527134;28;20220;-60
2021/12/03 05:34:43;;;;;;;13.40;7.33;;;;;;;-4.01;100.00;95868.94;10527357;28;20445;-61
2021/12/03 05:39:43;;;;;;;10.67;6.50;;;;;;;-3.93;100.00;95867.66;10527114;28;20179;-59
2021/12/03 05:44:44;;;;;;;14.53;6.07;;;;;;;-3.98;100.00;95885.81;10526246;28;20210;-60
2021/12/03 05:49:44;;;;;;;11.47;5.70;;;;;;;-3.99;100.00;95895.22;10526818;28;20183;-61
2021/12/03 05:54:45;;;;;;;8.30;5.43;;;;;;;-3.99;100.00;95891.84;10526419;28;20171;-63
2021/12/03 05:59:45;;;;;;;8.23;5.63;;;;;;;-3.99;100.00;95900.34;10525064;28;20192;-64
2021/12/03 06:04:45;;;;;;;8.80;4.83;;;;;;;-3.96;100.00;95909.59;10525937;28;20206;-60
2021/12/03 06:09:46;;;;;;;11.87;6.60;;;;;;;-4.01;100.00;95914.13;10525326;28;20278;-64
2021/12/03 06:14:46;;;;;;;6.43;4.80;;;;;;;-4.07;100.00;95917.88;10525757;28;20409;-63
2021/12/03 06:19:47;;;;;;;10.20;5.10;;;;;;;-4.14;100.00;95914.00;10525230;28;20314;-63
2021/12/03 06:24:47;;;;;;;5.57;4.07;;;;;;;-4.17;100.00;95909.88;10525322;28;20312;-62
2021/12/03 06:29:48;;;;;;;14.23;4.87;;;;;;;-4.18;100.00;95922.75;10527082;28;20178;-64
2021/12/03 06:34:48;;;;;;;10.17;4.50;;;;;;;-4.22;100.00;95936.63;10525825;28;20171;-61
2021/12/03 06:39:48;;;;;;;8.57;4.23;;;;;;;-4.13;100.00;95936.13;10542504;28;20206;-60
2021/12/03 06:44:49;;;;;;;8.13;3.83;;;;;;;-4.15;100.00;95941.31;10558333;28;20201;-59
2021/12/03 06:49:49;;;;;;;11.03;3.90;;;;;;;-4.17;100.00;95947.44;10563815;28;20195;-61
2021/12/03 06:54:56;;;;;;;6.33;3.50;;;;;;;-4.12;100.00;95943.72;10549415;28;20169;-62
2021/12/03 06:59:57;;;;;;;6.90;3.27;;;;;;;-4.03;100.00;95956.88;10558330;28;20179;-60
2021/12/03 07:04:57;;;;;;;8.80;3.87;;;;;;;-4.02;100.00;95949.13;10551252;28;20205;-62
2021/12/03 07:09:58;;;;;;;21.57;6.30;;;;;;;-4.08;100.00;95958.88;10537494;28;20181;-60
2021/12/03 07:14:59;;;;;;;7.37;3.57;;;;;;;-4.06;100.00;95962.97;10521981;28;20207;-63
2021/12/03 07:20:00;;;;;;;6.37;2.97;;;;;;;-4.07;100.00;95979.25;10557437;28;20182;-60
2021/12/03 07:25:01;;;;;;;6.27;2.80;;;;;;;-4.07;100.00;95979.25;10556787;28;20201;-62
2021/12/03 07:30:02;;;;;;;5.77;3.23;;;;;;;-4.11;100.00;95977.78;10551093;28;20597;-59
2021/12/03 07:35:03;;;;;;;4.73;2.43;;;;;;;-4.01;100.00;95981.47;10564402;28;20168;-60
2021/12/03 07:40:06;;;;;;;3.17;2.40;;;;;;;-3.96;100.00;95968.44;10571429;28;20184;-62
2021/12/03 07:45:08;;;;;;;6.70;2.50;;;;;;;-3.78;100.00;95980.19;10571672;28;20255;-58
2021/12/03 07:50:11;;;;;;;5.23;1.97;;;;;;;-3.48;100.00;95981.06;10571332;28;20171;-64
2021/12/03 07:55:11;;;;;;;4.50;2.20;;;;;;;-2.72;97.00;95972.34;10570892;28;20387;-62
2021/12/03 08:00:12;;;;;;;4.40;2.10;;;;;;;-2.30;89.56;95947.50;10570914;28;20178;-64
2021/12/03 08:05:13;;;;;;;2.47;1.80;;;;;;;-2.18;88.39;95943.34;10570087;28;20212;-63
2021/12/03 08:10:15;;;;;;;2.30;1.60;;;;;;;-1.67;84.71;95930.66;10570380;28;20182;-61
2021/12/03 08:15:15;;;;;;;4.43;1.40;;;;;;;-1.44;80.87;95918.88;10570368;28;20233;-62
2021/12/03 08:20:17;;;;;;;2.50;1.60;;;;;;;-1.51;80.39;95935.59;10569831;28;20171;-61
2021/12/03 08:25:17;;;;;;;1.70;1.60;;;;;;;-1.24;80.41;95941.56;10568621;28;20201;-62
2021/12/03 08:30:17;;;;;;;4.90;1.80;;;;;;;-1.80;80.82;95971.69;10567777;28;20174;-63
2021/12/03 08:35:18;;;;;;;4.73;1.40;;;;;;;-1.37;80.90;95967.28;10569434;28;20220;-61
2021/12/03 08:40:20;;;;;;;2.00;1.60;;;;;;;-1.24;78.27;95950.13;10569383;28;20174;-61
2021/12/03 08:45:21;;;;;;;3.43;1.97;;;;;;;-1.22;78.33;95943.13;10568773;28;20213;-63
2021/12/03 08:50:28;;;;;;;2.60;1.53;;;;;;;-0.62;76.92;95940.78;10560791;28;20182;-61
2021/12/03 08:55:29;;;;;;;1.90;1.50;;;;;;;-1.05;77.28;95954.03;10561442;28;20238;-63
2021/12/03 09:00:30;;;;;;;2.10;1.70;;;;;;;-0.64;76.44;95955.50;10568304;28;20183;-62
2021/12/03 09:05:31;;;;;;;4.53;1.30;;;;;;;-0.83;76.87;95972.19;10568424;28;20202;-61
2021/12/03 09:10:31;;;;;;;1.37;1.20;;;;;;;-0.42;74.66;95942.78;10567194;28;20372;-64
2021/12/03 09:15:38;;;;;;;4.13;1.17;;;;;;;-0.24;73.55;95939.84;10567877;28;20292;-63
2021/12/03 09:20:43;;;;;;;1.20;1.20;;;;;;;-0.07;73.49;95943.78;10567935;28;20441;-63
2021/12/03 09:25:52;;;;;;;2.00;1.40;;;;;;;-0.62;72.56;95912.50;10544353;28;20205;-61
2021/12/03 09:30:53;;;;;;;1.87;1.13;;;;;;;-0.08;71.96;95919.78;10567141;28;20319;-61
2021/12/03 09:35:57;;;;;;;1.50;1.20;;;;;;;-0.46;72.14;95913.06;10565445;28;20188;-62
2021/12/03 09:41:06;;;;;;;1.50;1.10;;;;;;;0.27;69.43;95890.66;10566326;28;20158;-59
2021/12/03 09:46:20;;;;;;;2.87;1.70;;;;;;;-0.60;68.81;95878.03;10565573;28;20480;-61
2021/12/03 09:51:23;;;;;;;1.70;1.30;;;;;;;0.12;67.43;95850.56;10565689;28;20177;-61
2021/12/03 09:56:25;;;;;;;1.63;0.93;;;;;;;0.63;66.74;95851.94;10552927;28;20213;-61
2021/12/03 10:01:38;;;;;;;2.80;1.43;;;;;;;0.31;68.38;95868.88;10564195;28;20178;-63
2021/12/03 10:07:54;;;;;;;4.03;1.43;;;;;;;0.25;67.25;95858.22;10565253;28;20216;-62
2021/12/03 10:17:33;;;;;;;1.43;1.33;;;;;;;0.48;66.32;95862.47;10565553;28;20445;-60
2021/12/03 10:23:06;;;;;;;4.10;1.70;;;;;;;1.37;62.53;95797.22;10564808;28;20387;-59
2021/12/03 10:38:38;;;;;;;1.53;1.00;;;;;;;0.38;61.82;95773.09;10564577;28;20173;-64
2021/12/03 10:43:56;;;;;;;1.80;1.40;;;;;;;0.17;62.74;95784.09;10560355;28;20320;-64
2021/12/03 10:49:16;;;;;;;1.63;1.10;;;;;;;0.95;61.46;95776.44;10531206;28;20291;-60
2021/12/03 11:00:16;;;;;;;0.93;0.90;;;;;;;1.30;62.11;95781.38;10520747;28;20226;-63
2021/12/03 11:33:34;;;;;;;2.47;1.57;;;;;;;1.49;63.55;95800.59;10550194;28;20170;-60
2021/12/03 11:43:05;;;;;;;2.07;1.40;;;;;;;1.02;63.82;95787.94;10531059;28;20203;-62
2021/12/03 11:58:56;;;;;;;2.57;1.33;;;;;;;0.91;64.87;95808.59;10529303;28;20169;-60
2021/12/03 12:10:12;;;;;;;2.50;1.67;;;;;;;0.86;64.13;95781.41;10568691;28;20257;-60
2021/12/03 12:32:55;;;;;;;2.33;1.80;;;;;;;0.53;67.16;95829.44;10570430;28;20232;-63
2021/12/03 13:00:15;;;;;;;5.37;2.00;;;;;;;1.22;66.72;95833.59;10569353;28;20170;-62
2021/12/03 13:10:45;;;;;;;2.23;1.60;;;;;;;1.43;67.63;95863.81;10547005;28;20181;-57
2021/12/03 13:16:11;;;;;;;2.47;1.50;;;;;;;1.53;67.72;95869.06;10568402;28;20331;-56
2021/12/03 13:32:29;;;;;;;2.83;1.40;;;;;;;0.93;71.88;95907.25;10563838;28;20171;-64
2021/12/03 13:38:27;;;;;;;1.63;1.33;;;;;;;0.53;72.09;95921.38;10566906;28;20209;-62
2021/12/03 13:59:12;;;;;;;3.17;1.73;;;;;;;-0.21;76.55;95942.22;10566597;28;20176;-61
2021/12/03 14:04:56;;;;;;;1.70;1.40;;;;;;;-0.23;76.68;95931.19;10556532;28;20199;-61
2021/12/03 14:36:26;;;;;;;3.47;1.87;;;;;;;-0.87;79.33;95927.06;10558425;28;20174;-64
2021/12/03 15:03:04;;;;;;;2.13;1.90;;;;;;;-1.25;82.85;95945.91;10523010;28;20167;-60
2021/12/03 15:08:06;;;;;;;7.63;4.07;;;;;;;-1.30;83.53;95942.81;10523355;28;20234;-63
2021/12/03 15:13:25;;;;;;;40.20;18.33;;;;;;;-1.32;84.51;95939.50;10522045;28;20282;-61
2021/12/03 15:33:55;;;;;;;1.97;1.60;;;;;;;-1.25;85.17;95925.34;10531080;28;20167;-63
2021/12/03 15:39:09;;;;;;;2.30;1.90;;;;;;;-1.27;86.08;95914.34;10545790;28;20191;-63
2021/12/03 16:05:50;;;;;;;3.70;2.53;;;;;;;-1.44;87.43;95894.91;10554446;28;20202;-63
2021/12/03 16:10:55;;;;;;;2.27;2.00;;;;;;;-1.43;87.24;95891.44;10538561;28;20293;-62
2021/12/03 16:53:02;;;;;;;7.13;2.67;;;;;;;-1.38;87.16;95868.00;10568672;28;20390;-62
2021/12/03 16:58:02;;;;;;;3.47;2.53;;;;;;;-1.39;88.03;95861.19;10568602;28;20166;-61
2021/12/03 17:03:21;;;;;;;3.30;2.23;;;;;;;-1.41;87.80;95847.66;10566360;28;20178;-61
2021/12/03 17:08:39;;;;;;;4.40;2.70;;;;;;;-1.38;88.03;95847.44;10561622;28;20181;-64
2021/12/03 17:14:04;;;;;;;4.90;3.00;;;;;;;-1.53;89.60;95845.00;10538725;28;20246;-63
2021/12/03 17:30:31;;;;;;;3.93;2.50;;;;;;;-1.46;89.67;95830.00;10527835;28;20386;-63
2021/12/03 17:56:43;;;;;;;4.40;2.90;;;;;;;-1.69;90.07;95818.69;10526969;28;20205;-62
2021/12/03 18:01:55;;;;;;;4.83;2.60;;;;;;;-1.66;90.13;95839.03;10526926;28;20412;-62
2021/12/03 18:48:49;;;;;;;3.80;2.77;;;;;;;-1.42;85.81;95792.06;10524037;28;20199;-65
2021/12/03 18:54:03;;;;;;;8.17;3.50;;;;;;;-1.53;87.37;95790.22;10524415;28;20166;-64
2021/12/03 18:59:07;;;;;;;8.30;3.20;;;;;;;-1.56;87.69;95775.88;10524031;28;20285;-62
2021/12/03 19:04:21;;;;;;;2.13;1.67;;;;;;;-1.56;88.05;95773.31;10523843;28;20208;-64
2021/12/03 19:09:32;;;;;;;4.53;2.73;;;;;;;-1.56;88.44;95772.47;10524018;28;20206;-62
2021/12/03 19:14:36;;;;;;;5.40;2.77;;;;;;;-1.53;89.08;95767.94;10524193;28;20215;-62
2021/12/03 19:19:43;;;;;;;2.43;1.70;;;;;;;-1.41;89.54;95756.00;10523318;28;20175;-64
2021/12/03 19:24:44;;;;;;;3.33;1.80;;;;;;;-1.48;89.77;95750.47;10523706;28;20202;-65
2021/12/03 19:29:44;;;;;;;2.00;1.80;;;;;;;-1.47;90.03;95743.56;10524448;28;20220;-65
2021/12/03 19:34:44;;;;;;;4.00;2.00;;;;;;;-1.44;89.80;95731.34;10530056;28;20180;-65
2021/12/03 19:39:45;;;;;;;5.30;2.10;;;;;;;-1.48;89.94;95719.66;10532170;28;20217;-64
2021/12/03 19:44:53;;;;;;;3.53;2.40;;;;;;;-1.38;90.13;95698.44;10532266;28;20405;-63
2021/12/03 19:55:32;;;;;;;2.90;1.93;;;;;;;-1.37;89.93;95674.41;10528623;28;20178;-65
2021/12/03 20:00:33;;;;;;;4.97;1.87;;;;;;;-1.62;91.73;95684.66;10530681;28;20187;-63
2021/12/03 20:05:33;;;;;;;3.03;2.27;;;;;;;-1.77;92.67;95669.50;10531031;28;20432;-65
2021/12/03 20:10:41;;;;;;;2.00;1.80;;;;;;;-1.80;92.63;95665.41;10531642;28;20186;-66
2021/12/03 20:15:58;;;;;;;3.50;2.50;;;;;;;-1.80;93.51;95667.97;10530145;28;20328;-65
2021/12/03 20:20:59;;;;;;;3.60;2.37;;;;;;;-1.66;92.69;95651.59;10531034;28;20179;-62
2021/12/03 20:31:23;;;;;;;4.20;1.90;;;;;;;-1.56;92.07;95633.78;10530263;28;20436;-64
2021/12/03 20:36:29;;;;;;;5.00;2.63;;;;;;;-1.55;92.47;95636.25;10530390;28;20163;-64
2021/12/03 20:41:34;;;;;;;3.77;2.87;;;;;;;-1.65;94.14;95630.13;10530010;28;20183;-63
2021/12/03 20:46:46;;;;;;;3.87;2.33;;;;;;;-1.68;95.34;95620.91;10529375;28;20203;-62
2021/12/03 20:57:23;;;;;;;2.50;2.30;;;;;;;-1.56;95.56;95623.50;10529234;28;20167;-64
2021/12/03 21:13:38;;;;;;;6.60;3.57;;;;;;;-1.52;95.42;95610.34;10526856;28;20465;-64
2021/12/03 21:23:49;;;;;;;5.87;2.97;;;;;;;-1.42;96.17;95582.25;10528599;28;20198;-62
2021/12/03 21:28:59;;;;;;;3.47;2.40;;;;;;;-1.40;95.94;95567.56;10527825;28;20168;-62
2021/12/03 21:39:21;;;;;;;3.47;2.90;;;;;;;-1.47;96.79;95562.06;10527013;28;20370;-63
2021/12/03 21:44:22;;;;;;;5.37;3.43;;;;;;;-1.65;98.19;95558.25;10527213;28;20195;-62
2021/12/03 21:49:23;;;;;;;7.20;4.10;;;;;;;-1.74;100.00;95552.00;10527788;28;20404;-65
2021/12/03 21:54:24;;;;;;;4.77;3.00;;;;;;;-1.64;99.10;95547.03;10553258;28;20242;-63
2021/12/03 21:59:24;;;;;;;8.10;4.27;;;;;;;-1.59;98.75;95556.97;10547688;28;20369;-63
2021/12/03 22:04:25;;;;;;;6.43;3.10;;;;;;;-1.52;97.37;95546.13;10544781;28;20222;-63
2021/12/03 22:09:25;;;;;;;6.57;3.10;;;;;;;-1.54;97.14;95530.03;10545664;28;20170;-63
2021/12/03 22:14:26;;;;;;;4.47;2.83;;;;;;;-1.58;97.66;95527.78;10536280;28;20449;-63
2021/12/03 22:19:27;;;;;;;6.83;3.73;;;;;;;-1.49;96.11;95530.50;10525840;28;20176;-65
2021/12/03 22:24:27;;;;;;;5.57;4.17;;;;;;;-1.38;95.57;95516.06;10525669;28;20221;-64
2021/12/03 22:29:28;;;;;;;4.60;3.30;;;;;;;-1.40;94.85;95507.66;10525565;28;20167;-64
2021/12/03 22:34:28;;;;;;;3.70;3.27;;;;;;;-1.41;95.42;95527.38;10526008;28;20249;-62
2021/12/03 22:39:29;;;;;;;4.10;3.33;;;;;;;-1.44;95.63;95505.31;10524602;28;20293;-63
2021/12/03 22:44:30;;;;;;;7.43;3.50;;;;;;;-1.44;95.75;95489.91;10525903;28;20298;-62
2021/12/03 22:49:53;;;;;;;7.07;4.00;;;;;;;-1.41;95.53;95486.28;10524968;28;20175;-63
2021/12/03 22:54:53;;;;;;;6.80;3.60;;;;;;;-1.40;94.97;95476.84;10525189;28;20171;-61
2021/12/03 22:59:53;;;;;;;5.37;4.23;;;;;;;-1.31;93.51;95464.13;10524876;28;20172;-58
2021/12/03 23:04:54;;;;;;;2.60;2.37;;;;;;;-1.17;91.90;95454.56;10525375;28;20421;-63
2021/12/03 23:09:54;;;;;;;6.10;3.80;;;;;;;-1.09;91.60;95441.94;10524139;28;20256;-60
2021/12/03 23:14:55;;;;;;;5.97;4.00;;;;;;;-1.13;91.91;95448.28;10524984;28;20223;-61
2021/12/03 23:19:55;;;;;;;4.27;2.87;;;;;;;-0.97;90.21;95430.72;10555036;28;20243;-62
2021/12/03 23:24:58;;;;;;;5.13;3.80;;;;;;;-0.92;89.58;95418.38;10566176;28;20194;-59
2021/12/03 23:29:58;;;;;;;6.87;3.97;;;;;;;-0.88;89.30;95411.22;10566239;28;20278;-62
2021/12/03 23:34:59;;;;;;;4.37;2.77;;;;;;;-0.75;87.04;95382.78;10566248;28;20174;-60
2021/12/03 23:39:59;;;;;;;9.13;3.90;;;;;;;-0.72;86.22;95374.84;10565528;28;20241;-61
2021/12/03 23:44:59;;;;;;;5.87;3.23;;;;;;;-0.68;86.02;95365.16;10565965;28;20260;-59
2021/12/03 23:50:00;;;;;;;7.57;2.93;;;;;;;-0.85;87.36;95372.41;10566118;28;20198;-59
2021/12/03 23:55:01;;;;;;;7.33;4.47;;;;;;;-1.12;90.43;95378.78;10565612;28;20162;-62
